sensor_id;sensor_type;location;lat;lon;timestamp;pressure;altitude;pressure_sealevel;temperature;humidity
62111;BME280;48102;47.526;19.072;2023-03-01T04:32:56;101421.28;;;4.25;96.33
62111;BME280;48102;47.526;19.072;2023-03-01T04:35:59;101421.28;;;4.25;96.33
62111;BME280;48102;47.526;19.072;2023-03-01T04:39:02;101418.94;;;3.74;98.64
62111;BME280;48102;47.526;19.072;2023-03-01T04:42:15;101418.09;;;3.74;98.68
62111;BME280;48102;47.526;19.072;2023-03-01T04:45:19;101411.12;;;3.74;100.00
62111;BME280;48102;47.526;19.072;2023-03-01T04:48:22;101421.56;;;3.81;100.00
62111;BME280;48102;47.526;19.072;2023-03-01T04:51:43;101416.31;;;3.79;100.00
62111;BME280;48102;47.526;19.072;2023-03-01T04:54:46;101410.22;;;3.85;100.00
62111;BME280;48102;47.526;19.072;2023-03-01T04:57:49;101398.91;;;3.86;100.00
62111;BME280;48102;47.526;19.072;2023-03-01T05:00:52;101398.00;;;3.91;100.00
62111;BME280;48102;47.526;19.072;2023-03-01T05:03:55;101406.72;;;3.90;100.00
62111;BME280;48102;47.526;19.072;2023-03-01T05:06:58;101398.88;;;3.92;100.00
62111;BME280;48102;47.526;19.072;2023-03-01T05:10:01;101402.34;;;3.94;100.00
62111;BME280;48102;47.526;19.072;2023-03-01T05:13:07;101403.22;;;3.94;100.00
62111;BME280;48102;47.526;19.072;2023-03-01T05:16:10;101395.38;;;3.97;100.00
62111;BME280;48102;47.526;19.072;2023-03-01T05:19:16;101407.50;;;4.03;100.00
62111;BME280;48102;47.526;19.072;2023-03-01T05:22:25;101402.28;;;4.05;100.00
62111;BME280;48102;47.526;19.072;2023-03-01T05:25:28;101402.28;;;4.01;99.12
62111;BME280;48102;47.526;19.072;2023-03-01T05:28:35;101397.06;;;4.01;100.00
62111;BME280;48102;47.526;19.072;2023-03-01T05:31:38;101407.50;;;4.08;100.00
62111;BME280;48102;47.526;19.072;2023-03-01T05:34:41;101404.91;;;4.06;96.60
62111;BME280;48102;47.526;19.072;2023-03-01T05:37:46;101410.09;;;4.08;96.48
62111;BME280;48102;47.526;19.072;2023-03-01T05:40:50;101415.22;;;4.18;100.00
62111;BME280;48102;47.526;19.072;2023-03-01T05:43:53;101409.13;;;4.22;100.00
62111;BME280;48102;47.526;19.072;2023-03-01T05:46:56;101411.66;;;4.32;100.00
62111;BME280;48102;47.526;19.072;2023-03-01T05:50:00;101411.69;;;4.27;98.95
62111;BME280;48102;47.526;19.072;2023-03-01T05:53:11;101416.91;;;4.30;99.25
62111;BME280;48102;47.526;19.072;2023-03-01T05:56:15;101425.62;;;4.26;98.40
62111;BME280;48102;47.526;19.072;2023-03-01T05:59:18;101423.00;;;4.32;98.42
62111;BME280;48102;47.526;19.072;2023-03-01T06:02:21;101423.78;;;4.40;99.22
62111;BME280;48102;47.526;19.072;2023-03-01T06:05:24;101420.28;;;4.43;99.18
62111;BME280;48102;47.526;19.072;2023-03-01T06:08:27;101422.00;;;4.50;97.27
62111;BME280;48102;47.526;19.072;2023-03-01T06:11:30;101428.94;;;4.54;96.75
62111;BME280;48102;47.526;19.072;2023-03-01T06:14:33;101423.59;;;4.68;95.21
62111;BME280;48102;47.526;19.072;2023-03-01T06:17:38;101428.81;;;4.68;95.67
62111;BME280;48102;47.526;19.072;2023-03-01T06:20:43;101428.78;;;4.72;94.65
62111;BME280;48102;47.526;19.072;2023-03-01T06:23:46;101429.63;;;4.73;94.72
62111;BME280;48102;47.526;19.072;2023-03-01T06:26:49;101427.81;;;4.81;95.08
62111;BME280;48102;47.526;19.072;2023-03-01T06:29:52;101432.16;;;4.82;92.12
62111;BME280;48102;47.526;19.072;2023-03-01T06:32:56;101427.84;;;4.78;91.89
62111;BME280;48102;47.526;19.072;2023-03-01T06:36:03;101438.22;;;4.87;92.51
62111;BME280;48102;47.526;19.072;2023-03-01T06:39:06;101435.56;;;4.93;90.66
62111;BME280;48102;47.526;19.072;2023-03-01T06:42:10;101438.09;;;5.01;92.19
62111;BME280;48102;47.526;19.072;2023-03-01T06:45:13;101437.13;;;5.11;91.40
62111;BME280;48102;47.526;19.072;2023-03-01T06:48:16;101440.50;;;5.22;89.53
62111;BME280;48102;47.526;19.072;2023-03-01T06:51:19;101452.62;;;5.28;88.81
62111;BME280;48102;47.526;19.072;2023-03-01T06:54:22;101446.41;;;5.41;88.28
62111;BME280;48102;47.526;19.072;2023-03-01T06:57:25;101461.22;;;5.41;85.78
62111;BME280;48102;47.526;19.072;2023-03-01T07:00:31;101465.50;;;5.49;87.01
62111;BME280;48102;47.526;19.072;2023-03-01T07:03:34;101449.75;;;5.54;83.90
62111;BME280;48102;47.526;19.072;2023-03-01T07:06:37;101451.50;;;5.52;84.16
62111;BME280;48102;47.526;19.072;2023-03-01T07:09:39;101458.34;;;5.64;84.96
62111;BME280;48102;47.526;19.072;2023-03-01T07:12:42;101446.91;;;5.72;83.11
62111;BME280;48102;47.526;19.072;2023-03-01T07:15:45;101445.84;;;5.89;81.69
62111;BME280;48102;47.526;19.072;2023-03-01T07:18:48;101444.97;;;5.87;81.11
62111;BME280;48102;47.526;19.072;2023-03-01T07:21:51;101440.50;;;5.99;81.14
62111;BME280;48102;47.526;19.072;2023-03-01T07:24:54;101447.31;;;6.11;79.58
62111;BME280;48102;47.526;19.072;2023-03-01T07:27:56;101438.44;;;6.23;79.08
62111;BME280;48102;47.526;19.072;2023-03-01T07:31:00;101432.12;;;6.36;78.93
62111;BME280;48102;47.526;19.072;2023-03-01T07:34:03;101441.22;;;6.68;75.94
62111;BME280;48102;47.526;19.072;2023-03-01T07:37:06;101433.16;;;6.82;74.30
62111;BME280;48102;47.526;19.072;2023-03-01T07:40:11;101444.31;;;6.93;73.67
62111;BME280;48102;47.526;19.072;2023-03-01T07:43:16;101448.38;;;7.11;73.92
62111;BME280;48102;47.526;19.072;2023-03-01T07:46:19;101441.44;;;7.08;71.49
62111;BME280;48102;47.526;19.072;2023-03-01T07:49:23;101436.25;;;7.05;73.15
62111;BME280;48102;47.526;19.072;2023-03-01T07:52:26;101437.53;;;7.29;72.55
62111;BME280;48102;47.526;19.072;2023-03-01T07:55:29;101433.69;;;7.48;69.28
62111;BME280;48102;47.526;19.072;2023-03-01T07:58:37;101419.19;;;7.72;68.79
62111;BME280;48102;47.526;19.072;2023-03-01T08:01:40;101421.25;;;8.00;67.25
62111;BME280;48102;47.526;19.072;2023-03-01T08:04:43;101420.19;;;8.09;67.12
62111;BME280;48102;47.526;19.072;2023-03-01T08:07:46;101420.47;;;7.96;63.32
62111;BME280;48102;47.526;19.072;2023-03-01T08:10:51;101422.47;;;7.84;65.76
62111;BME280;48102;47.526;19.072;2023-03-01T08:13:54;101418.78;;;7.92;66.27
62111;BME280;48102;47.526;19.072;2023-03-01T08:16:57;101420.41;;;7.98;67.20
62111;BME280;48102;47.526;19.072;2023-03-01T08:20:00;101414.84;;;8.12;66.58
62111;BME280;48102;47.526;19.072;2023-03-01T08:23:03;101417.94;;;8.30;65.17
62111;BME280;48102;47.526;19.072;2023-03-01T08:26:11;101411.94;;;8.25;63.84
62111;BME280;48102;47.526;19.072;2023-03-01T08:29:15;101412.56;;;8.35;63.68
62111;BME280;48102;47.526;19.072;2023-03-01T08:32:18;101408.56;;;8.58;64.12
62111;BME280;48102;47.526;19.072;2023-03-01T08:35:21;101398.63;;;8.70;60.39
62111;BME280;48102;47.526;19.072;2023-03-01T08:38:24;101400.88;;;8.84;59.28
62111;BME280;48102;47.526;19.072;2023-03-01T08:41:27;101408.16;;;8.74;58.60
62111;BME280;48102;47.526;19.072;2023-03-01T08:44:30;101400.66;;;8.93;59.97
62111;BME280;48102;47.526;19.072;2023-03-01T08:47:33;101392.56;;;9.01;57.99
62111;BME280;48102;47.526;19.072;2023-03-01T08:50:37;101389.63;;;9.13;57.47
62111;BME280;48102;47.526;19.072;2023-03-01T08:53:42;101390.31;;;9.20;57.64
62111;BME280;48102;47.526;19.072;2023-03-01T08:56:46;101388.69;;;9.16;58.98
62111;BME280;48102;47.526;19.072;2023-03-01T08:59:49;101385.69;;;9.28;57.99
62111;BME280;48102;47.526;19.072;2023-03-01T09:02:52;101384.94;;;9.55;56.89
62111;BME280;48102;47.526;19.072;2023-03-01T09:06:00;101379.53;;;9.60;56.36
62111;BME280;48102;47.526;19.072;2023-03-01T09:09:04;101381.38;;;9.86;56.74
62111;BME280;48102;47.526;19.072;2023-03-01T09:12:08;101387.66;;;10.10;54.03
62111;BME280;48102;47.526;19.072;2023-03-01T09:15:10;101386.50;;;10.19;53.04
62111;BME280;48102;47.526;19.072;2023-03-01T09:18:13;101380.75;;;10.36;53.55
62111;BME280;48102;47.526;19.072;2023-03-01T09:21:17;101372.69;;;10.12;54.19
62111;BME280;48102;47.526;19.072;2023-03-01T09:24:33;101370.72;;;10.19;53.78
62111;BME280;48102;47.526;19.072;2023-03-01T09:27:36;101364.84;;;10.39;53.54
62111;BME280;48102;47.526;19.072;2023-03-01T09:30:41;101355.94;;;10.43;54.06
62111;BME280;48102;47.526;19.072;2023-03-01T09:33:48;101352.44;;;10.42;52.64
62111;BME280;48102;47.526;19.072;2023-03-01T09:36:52;101350.88;;;10.63;53.56
62111;BME280;48102;47.526;19.072;2023-03-01T09:39:55;101344.41;;;10.72;52.81
62111;BME280;48102;47.526;19.072;2023-03-01T09:43:02;101344.41;;;10.72;52.86
62111;BME280;48102;47.526;19.072;2023-03-01T09:46:11;101335.47;;;10.51;52.40
62111;BME280;48102;47.526;19.072;2023-03-01T09:49:34;101330.72;;;10.61;51.77
62111;BME280;48102;47.526;19.072;2023-03-01T09:56:22;101328.19;;;10.31;54.07
62111;BME280;48102;47.526;19.072;2023-03-01T09:59:45;101317.88;;;10.25;53.13
62111;BME280;48102;47.526;19.072;2023-03-01T10:06:10;101320.44;;;10.53;53.36
62111;BME280;48102;47.526;19.072;2023-03-01T10:09:37;101318.00;;;10.20;53.14
62111;BME280;48102;47.526;19.072;2023-03-01T10:12:41;101320.56;;;10.50;54.13
62111;BME280;48102;47.526;19.072;2023-03-01T10:15:53;101316.28;;;10.72;52.19
62111;BME280;48102;47.526;19.072;2023-03-01T10:19:00;101307.19;;;10.81;51.49
62111;BME280;48102;47.526;19.072;2023-03-01T10:22:15;101302.97;;;10.50;52.47
62111;BME280;48102;47.526;19.072;2023-03-01T10:32:04;101284.72;;;10.94;52.08
62111;BME280;48102;47.526;19.072;2023-03-01T10:35:21;101279.38;;;10.96;51.60
62111;BME280;48102;47.526;19.072;2023-03-01T10:38:25;101274.81;;;11.01;52.28
62111;BME280;48102;47.526;19.072;2023-03-01T10:41:28;101270.81;;;11.14;52.55
62111;BME280;48102;47.526;19.072;2023-03-01T10:44:41;101260.50;;;11.32;51.44
62111;BME280;48102;47.526;19.072;2023-03-01T10:47:45;101258.91;;;11.49;51.13
62111;BME280;48102;47.526;19.072;2023-03-01T10:50:51;101246.22;;;11.59;50.27
62111;BME280;48102;47.526;19.072;2023-03-01T10:57:28;101235.47;;;11.64;50.40
62111;BME280;48102;47.526;19.072;2023-03-01T11:00:33;101240.66;;;11.89;50.16
62111;BME280;48102;47.526;19.072;2023-03-01T11:03:37;101237.41;;;12.24;48.59
62111;BME280;48102;47.526;19.072;2023-03-01T11:06:41;101233.37;;;12.16;48.32
62111;BME280;48102;47.526;19.072;2023-03-01T11:09:44;101228.88;;;12.38;48.16
62111;BME280;48102;47.526;19.072;2023-03-01T11:12:47;101223.25;;;12.25;47.60
62111;BME280;48102;47.526;19.072;2023-03-01T11:16:02;101230.88;;;12.33;47.80
62111;BME280;48102;47.526;19.072;2023-03-01T11:22:13;101211.81;;;12.04;48.09
62111;BME280;48102;47.526;19.072;2023-03-01T11:25:36;101210.66;;;12.32;47.26
62111;BME280;48102;47.526;19.072;2023-03-01T11:28:51;101201.53;;;12.39;46.81
62111;BME280;48102;47.526;19.072;2023-03-01T11:31:59;101198.59;;;12.66;47.33
62111;BME280;48102;47.526;19.072;2023-03-01T11:35:14;101203.06;;;13.03;46.75
62111;BME280;48102;47.526;19.072;2023-03-01T11:38:27;101199.78;;;12.98;45.70
62111;BME280;48102;47.526;19.072;2023-03-01T11:41:34;101203.50;;;13.50;44.72
62111;BME280;48102;47.526;19.072;2023-03-01T11:44:41;101199.53;;;13.95;44.58
62111;BME280;48102;47.526;19.072;2023-03-01T12:11:35;101171.72;;;14.72;42.81
62111;BME280;48102;47.526;19.072;2023-03-01T12:31:52;101136.75;;;15.59;41.01
62111;BME280;48102;47.526;19.072;2023-03-01T12:41:47;101128.44;;;16.82;39.71
62111;BME280;48102;47.526;19.072;2023-03-01T12:48:27;101120.81;;;16.62;38.79
62111;BME280;48102;47.526;19.072;2023-03-01T12:51:36;101122.84;;;16.15;39.69
62111;BME280;48102;47.526;19.072;2023-03-01T12:54:41;101115.91;;;16.41;39.75
62111;BME280;48102;47.526;19.072;2023-03-01T12:57:53;101119.13;;;16.46;39.54
62111;BME280;48102;47.526;19.072;2023-03-01T13:01:22;101117.25;;;16.77;39.49
62111;BME280;48102;47.526;19.072;2023-03-01T13:04:40;101109.88;;;17.36;38.63
62111;BME280;48102;47.526;19.072;2023-03-01T13:08:05;101106.28;;;17.77;37.62
62111;BME280;48102;47.526;19.072;2023-03-01T13:11:19;101113.34;;;17.91;37.05
62111;BME280;48102;47.526;19.072;2023-03-01T13:17:31;101101.09;;;17.61;38.86
62111;BME280;48102;47.526;19.072;2023-03-01T13:20:46;101105.53;;;17.48;37.49
62111;BME280;48102;47.526;19.072;2023-03-01T13:23:49;101105.47;;;16.81;38.84
62111;BME280;48102;47.526;19.072;2023-03-01T13:33:46;101080.87;;;20.04;33.81
62111;BME280;48102;47.526;19.072;2023-03-01T13:36:50;101075.84;;;23.09;30.06
62111;BME280;48102;47.526;19.072;2023-03-01T13:39:52;101083.03;;;25.07;26.97
62111;BME280;48102;47.526;19.072;2023-03-01T13:42:56;101071.97;;;27.67;24.35
62111;BME280;48102;47.526;19.072;2023-03-01T13:46:16;101076.84;;;29.31;22.43
62111;BME280;48102;47.526;19.072;2023-03-01T13:49:28;101083.94;;;29.63;21.58
62111;BME280;48102;47.526;19.072;2023-03-01T13:52:53;101071.09;;;30.09;21.16
62111;BME280;48102;47.526;19.072;2023-03-01T13:56:15;101064.41;;;31.65;19.64
62111;BME280;48102;47.526;19.072;2023-03-01T13:59:21;101051.09;;;32.05;19.37
62111;BME280;48102;47.526;19.072;2023-03-01T14:02:25;101047.56;;;31.55;19.52
62111;BME280;48102;47.526;19.072;2023-03-01T14:05:28;101044.88;;;32.52;18.94
62111;BME280;48102;47.526;19.072;2023-03-01T14:08:36;101032.47;;;32.08;18.77
62111;BME280;48102;47.526;19.072;2023-03-01T14:14:59;101037.91;;;31.80;19.56
62111;BME280;48102;47.526;19.072;2023-03-01T14:18:10;101025.25;;;32.35;18.86
62111;BME280;48102;47.526;19.072;2023-03-01T14:21:17;101017.00;;;33.64;18.36
62111;BME280;48102;47.526;19.072;2023-03-01T14:24:22;101016.09;;;33.84;17.90
62111;BME280;48102;47.526;19.072;2023-03-01T14:27:33;101017.84;;;34.43;17.50
62111;BME280;48102;47.526;19.072;2023-03-01T14:30:44;101009.97;;;35.05;16.86
62111;BME280;48102;47.526;19.072;2023-03-01T14:33:54;101014.53;;;35.17;16.49
62111;BME280;48102;47.526;19.072;2023-03-01T14:40:35;100999.34;;;34.83;16.94
62111;BME280;48102;47.526;19.072;2023-03-01T14:43:43;100992.31;;;35.01;16.39
62111;BME280;48102;47.526;19.072;2023-03-01T14:46:46;100990.59;;;32.84;17.85
62111;BME280;48102;47.526;19.072;2023-03-01T14:49:56;100987.88;;;32.84;18.00
62111;BME280;48102;47.526;19.072;2023-03-01T14:53:02;100971.09;;;31.91;18.64
62111;BME280;48102;47.526;19.072;2023-03-01T14:56:13;100972.16;;;31.90;18.96
62111;BME280;48102;47.526;19.072;2023-03-01T14:59:21;100975.63;;;31.49;19.56
62111;BME280;48102;47.526;19.072;2023-03-01T15:02:27;100965.53;;;31.78;18.74
62111;BME280;48102;47.526;19.072;2023-03-01T15:05:32;100963.19;;;32.03;18.96
62111;BME280;48102;47.526;19.072;2023-03-01T15:08:37;100969.19;;;31.85;19.08
62111;BME280;48102;47.526;19.072;2023-03-01T15:11:43;100963.72;;;29.46;20.09
62111;BME280;48102;47.526;19.072;2023-03-01T15:14:47;100963.84;;;28.21;21.86
62111;BME280;48102;47.526;19.072;2023-03-01T15:18:13;100958.97;;;27.45;23.01
62111;BME280;48102;47.526;19.072;2023-03-01T15:21:21;100954.06;;;25.02;25.33
62111;BME280;48102;47.526;19.072;2023-03-01T15:24:26;100967.69;;;22.66;28.00
62111;BME280;48102;47.526;19.072;2023-03-01T15:27:30;100962.91;;;21.05;30.53
62111;BME280;48102;47.526;19.072;2023-03-01T15:30:36;100956.03;;;20.37;31.36
62111;BME280;48102;47.526;19.072;2023-03-01T15:33:42;100947.59;;;19.87;32.35
62111;BME280;48102;47.526;19.072;2023-03-01T15:36:51;100948.97;;;18.76;34.12
62111;BME280;48102;47.526;19.072;2023-03-01T15:39:56;100954.72;;;17.71;35.63
62111;BME280;48102;47.526;19.072;2023-03-01T15:43:03;100953.72;;;16.81;37.78
62111;BME280;48102;47.526;19.072;2023-03-01T15:46:20;100955.50;;;15.84;39.39
62111;BME280;48102;47.526;19.072;2023-03-01T15:49:40;100959.88;;;14.96;40.27
62111;BME280;48102;47.526;19.072;2023-03-01T15:52:58;100960.25;;;14.58;41.56
62111;BME280;48102;47.526;19.072;2023-03-01T15:56:01;100957.38;;;13.98;43.10
62111;BME280;48102;47.526;19.072;2023-03-01T15:59:04;100956.03;;;13.40;45.04
62111;BME280;48102;47.526;19.072;2023-03-01T16:02:10;100964.78;;;12.89;46.39
62111;BME280;48102;47.526;19.072;2023-03-01T16:05:24;100961.28;;;12.33;47.67
62111;BME280;48102;47.526;19.072;2023-03-01T16:08:28;100967.56;;;11.93;48.50
62111;BME280;48102;47.526;19.072;2023-03-01T16:11:31;100961.25;;;11.56;49.51
62111;BME280;48102;47.526;19.072;2023-03-01T16:14:36;100966.69;;;11.33;50.92
62111;BME280;48102;47.526;19.072;2023-03-01T16:17:39;100967.25;;;10.98;51.47
62111;BME280;48102;47.526;19.072;2023-03-01T16:20:42;100965.78;;;10.69;52.71
62111;BME280;48102;47.526;19.072;2023-03-01T16:23:46;100975.66;;;10.42;54.00
62111;BME280;48102;47.526;19.072;2023-03-01T16:26:48;100977.66;;;10.12;54.48
62111;BME280;48102;47.526;19.072;2023-03-01T16:29:51;100973.13;;;9.92;55.94
62111;BME280;48102;47.526;19.072;2023-03-01T16:32:54;100964.97;;;9.75;57.50
62111;BME280;48102;47.526;19.072;2023-03-01T16:35:57;100988.63;;;9.51;58.11
62111;BME280;48102;47.526;19.072;2023-03-01T16:39:02;100989.16;;;9.36;58.67
62111;BME280;48102;47.526;19.072;2023-03-01T16:42:06;100987.09;;;9.19;59.43
62111;BME280;48102;47.526;19.072;2023-03-01T16:45:09;100990.31;;;9.02;60.08
62111;BME280;48102;47.526;19.072;2023-03-01T16:48:25;100998.63;;;8.89;62.12
62111;BME280;48102;47.526;19.072;2023-03-01T16:51:28;101001.75;;;8.73;63.38
62111;BME280;48102;47.526;19.072;2023-03-01T16:54:33;101010.09;;;8.60;64.15
62111;BME280;48102;47.526;19.072;2023-03-01T16:57:37;101016.50;;;8.49;65.26
62111;BME280;48102;47.526;19.072;2023-03-01T17:00:43;101015.06;;;8.39;66.22
62111;BME280;48102;47.526;19.072;2023-03-01T17:03:46;101011.97;;;8.25;68.45
62111;BME280;48102;47.526;19.072;2023-03-01T17:06:51;101019.41;;;8.09;68.75
62111;BME280;48102;47.526;19.072;2023-03-01T17:09:53;101016.34;;;7.95;70.66
62111;BME280;48102;47.526;19.072;2023-03-01T17:12:56;101020.28;;;7.78;72.93
62111;BME280;48102;47.526;19.072;2023-03-01T17:15:59;101015.16;;;7.74;75.93
62111;BME280;48102;47.526;19.072;2023-03-01T17:19:02;101015.69;;;7.54;75.71
62111;BME280;48102;47.526;19.072;2023-03-01T17:22:05;101020.28;;;7.46;76.18
62111;BME280;48102;47.526;19.072;2023-03-01T17:25:09;101018.06;;;7.29;77.88
62111;BME280;48102;47.526;19.072;2023-03-01T17:28:12;101024.50;;;7.17;79.81
62111;BME280;48102;47.526;19.072;2023-03-01T17:31:23;101021.09;;;7.14;80.27
62111;BME280;48102;47.526;19.072;2023-03-01T17:34:26;101022.75;;;7.18;79.61
62111;BME280;48102;47.526;19.072;2023-03-01T17:37:29;101028.00;;;7.16;80.69
62111;BME280;48102;47.526;19.072;2023-03-01T17:40:32;101017.53;;;7.16;80.17
62111;BME280;48102;47.526;19.072;2023-03-01T17:43:39;101021.03;;;7.17;80.12
62111;BME280;48102;47.526;19.072;2023-03-01T17:46:42;101021.22;;;7.09;80.52
62111;BME280;48102;47.526;19.072;2023-03-01T17:49:45;101020.50;;;7.02;80.52
